Time;durP1;ratioP1;P1;durP2;ratioP2;P2;SDS_P1;SDS_P2;PMS_P1;PMS_P2;Temp;Humidity;BMP_temperature;BMP_pressure;BME280_temperature;BME280_humidity;BME280_pressure;Samples;Min_cycle;Max_cycle;Signal;HPM_P1;HPM_P2
2021/07/10 00:00:12;;;;;;;10.93;9.83;;;;;;;17.39;75.49;101771.34;3595440;40;20228;-80
2021/07/10 00:02:37;;;;;;;16.23;12.70;;;;;;;17.39;75.32;101774.84;3595368;40;20248;-79
2021/07/10 00:05:03;;;;;;;15.33;11.53;;;;;;;17.37;75.13;101773.06;3586162;40;20521;-81
2021/07/10 00:07:29;;;;;;;13.73;11.27;;;;;;;17.44;74.72;101773.13;3586206;40;20233;-79
2021/07/10 00:09:54;;;;;;;11.87;10.40;;;;;;;17.54;74.55;101774.06;3595664;40;20232;-80
2021/07/10 00:12:19;;;;;;;11.57;10.37;;;;;;;17.47;74.65;101767.13;3597225;40;20255;-80
2021/07/10 00:14:44;;;;;;;13.70;12.17;;;;;;;17.49;74.56;101760.19;3585503;40;20594;-80
2021/07/10 00:17:10;;;;;;;12.90;11.50;;;;;;;17.48;74.07;101756.75;3590758;40;20229;-79
2021/07/10 00:19:35;;;;;;;13.43;10.90;;;;;;;17.35;74.53;101756.63;3590102;40;20594;-79
2021/07/10 00:22:00;;;;;;;11.27;9.73;;;;;;;17.29;74.82;101759.19;3585491;40;20248;-81
2021/07/10 00:24:30;;;;;;;16.37;11.17;;;;;;;17.35;74.83;101759.22;3585567;40;20618;-81
2021/07/10 00:26:56;;;;;;;17.00;12.23;;;;;;;17.44;74.73;101756.72;3585099;40;20221;-81
2021/07/10 00:29:21;;;;;;;14.80;12.43;;;;;;;17.37;74.35;101758.38;3585124;40;20232;-79
2021/07/10 00:31:46;;;;;;;13.23;11.37;;;;;;;17.25;74.78;101763.47;3594651;40;20313;-81
2021/07/10 00:34:11;;;;;;;12.83;10.70;;;;;;;17.21;75.32;101760.84;3594769;40;20229;-80
2021/07/10 00:36:38;;;;;;;11.43;10.23;;;;;;;17.26;75.14;101757.44;3595281;40;20342;-81
2021/07/10 00:39:04;;;;;;;13.33;11.90;;;;;;;17.29;74.81;101759.19;3591575;40;20233;-80
2021/07/10 00:41:29;;;;;;;12.43;10.50;;;;;;;17.26;75.01;101757.44;3584621;40;20240;-81
2021/07/10 00:43:54;;;;;;;13.73;11.63;;;;;;;17.36;74.04;101753.22;3592916;40;20225;-81
2021/07/10 00:46:21;;;;;;;14.40;11.43;;;;;;;17.40;74.03;101749.81;3585444;40;20246;-81
2021/07/10 00:48:48;;;;;;;13.73;11.10;;;;;;;17.32;74.35;101738.50;3584643;40;20620;-78
2021/07/10 00:51:15;;;;;;;14.50;12.07;;;;;;;17.36;73.94;101738.53;3585286;40;20256;-80
2021/07/10 00:53:40;;;;;;;12.77;11.47;;;;;;;17.41;74.36;101736.84;3574352;40;20257;-80
2021/07/10 00:56:06;;;;;;;13.10;11.63;;;;;;;17.29;74.35;101734.16;3587280;40;20534;-80
2021/07/10 00:58:33;;;;;;;12.50;10.53;;;;;;;17.21;74.59;101734.97;3596059;40;20241;-81
2021/07/10 01:00:58;;;;;;;16.43;12.70;;;;;;;17.15;74.82;101728.03;3596536;40;20868;-81
2021/07/10 01:03:25;;;;;;;14.43;12.27;;;;;;;17.06;75.10;101727.97;3597063;40;20216;-79
2021/07/10 01:05:50;;;;;;;14.97;12.43;;;;;;;17.05;75.45;101728.84;3587588;40;20241;-80
2021/07/10 01:08:16;;;;;;;14.97;12.07;;;;;;;16.99;75.41;101727.91;3597306;40;20232;-82
2021/07/10 01:10:41;;;;;;;13.43;11.00;;;;;;;17.02;75.25;101722.75;3596972;40;20700;-81
2021/07/10 01:13:08;;;;;;;13.13;11.80;;;;;;;17.04;75.58;101721.06;3587387;40;20220;-80
2021/07/10 01:15:33;;;;;;;13.33;11.60;;;;;;;17.02;75.64;101712.41;3595301;40;20265;-81
2021/07/10 01:17:59;;;;;;;15.30;13.33;;;;;;;17.05;74.90;101715.00;3595705;40;20225;-81
2021/07/10 01:20:26;;;;;;;14.50;12.97;;;;;;;17.03;75.03;101707.22;3584413;40;20214;-81
2021/07/10 01:22:52;;;;;;;14.52;12.15;;;;;;;16.88;75.81;101703.66;3584282;40;20292;-80
2021/07/10 01:25:22;;;;;;;14.90;13.03;;;;;;;16.96;75.31;101708.06;3582050;40;20230;-80
2021/07/10 01:27:48;;;;;;;12.90;11.60;;;;;;;16.99;75.18;101704.63;3595918;40;20236;-80
2021/07/10 01:30:16;;;;;;;16.80;12.57;;;;;;;16.97;75.42;101703.72;3596056;40;20228;-81
2021/07/10 01:32:44;;;;;;;17.03;13.17;;;;;;;17.08;74.60;101709.88;3595476;40;20261;-81
2021/07/10 01:35:10;;;;;;;13.73;11.37;;;;;;;16.94;74.97;101703.72;3586554;40;20217;-81
2021/07/10 01:37:37;;;;;;;13.33;11.93;;;;;;;16.94;75.14;101704.59;3596008;40;20223;-81
2021/07/10 01:40:05;;;;;;;13.23;11.83;;;;;;;17.02;74.31;101704.63;3595882;40;20514;-80
2021/07/10 01:42:31;;;;;;;14.83;11.97;;;;;;;17.02;74.45;101702.03;3584930;40;20276;-80
2021/07/10 01:44:56;;;;;;;13.93;12.03;;;;;;;16.94;74.65;101698.56;3594493;40;20241;-81
2021/07/10 01:47:22;;;;;;;14.30;12.00;;;;;;;16.98;74.52;101693.41;3585718;40;20237;-80
2021/07/10 01:49:47;;;;;;;16.30;11.93;;;;;;;16.87;74.69;101692.47;3593173;40;20499;-79
2021/07/10 01:52:12;;;;;;;15.13;10.97;;;;;;;16.80;75.21;101698.44;3593162;40;20251;-80
2021/07/10 01:54:37;;;;;;;13.57;12.03;;;;;;;16.78;75.03;101697.56;3586537;40;20517;-80
2021/07/10 01:57:09;;;;;;;12.33;10.87;;;;;;;16.97;74.49;101693.38;3595682;40;20217;-80
2021/07/10 01:59:35;;;;;;;12.87;11.37;;;;;;;16.93;74.36;101694.22;3594373;40;20314;-80
2021/07/10 02:02:01;;;;;;;13.77;10.90;;;;;;;16.86;74.45;101689.88;3594054;40;20300;-79
2021/07/10 02:04:26;;;;;;;13.37;11.20;;;;;;;17.00;73.95;101683.06;3595023;40;20275;-80
2021/07/10 02:06:51;;;;;;;14.47;11.57;;;;;;;16.90;74.35;101678.69;3585295;40;20592;-80
2021/07/10 02:09:17;;;;;;;14.70;12.07;;;;;;;16.82;74.18;101677.75;3594797;40;20241;-85
2021/07/10 02:11:49;;;;;;;13.00;11.33;;;;;;;16.79;74.55;101681.19;3584480;40;20245;-80
2021/07/10 02:14:16;;;;;;;15.77;12.53;;;;;;;16.76;74.39;101675.97;3595272;40;20221;-80
2021/07/10 02:16:43;;;;;;;15.03;11.73;;;;;;;16.82;74.36;101676.03;3586385;40;20507;-80
2021/07/10 02:19:09;;;;;;;14.37;11.60;;;;;;;16.63;75.31;101678.47;3585855;40;20217;-80
2021/07/10 02:21:34;;;;;;;13.03;11.63;;;;;;;16.62;74.91;101679.34;3595103;40;20244;-80
2021/07/10 02:24:00;;;;;;;14.20;11.80;;;;;;;16.73;74.32;101672.50;3585773;40;20311;-80
2021/07/10 02:26:25;;;;;;;14.87;11.23;;;;;;;16.73;74.08;101675.97;3585437;40;20225;-79
2021/07/10 02:28:50;;;;;;;14.27;11.03;;;;;;;16.84;73.47;101676.03;3594407;40;20623;-79
2021/07/10 02:31:16;;;;;;;12.37;11.07;;;;;;;16.74;74.00;101679.41;3585404;40;20285;-81
2021/07/10 02:33:42;;;;;;;12.37;11.07;;;;;;;16.71;73.79;101672.50;3594083;40;20248;-80
2021/07/10 02:36:07;;;;;;;12.33;11.13;;;;;;;16.64;74.73;101672.44;3585778;40;20242;-79
2021/07/10 02:38:32;;;;;;;12.90;11.10;;;;;;;16.50;74.93;101669.75;3595588;40;20233;-79
2021/07/10 02:40:58;;;;;;;16.83;13.20;;;;;;;16.57;74.69;101668.09;3584240;40;20253;-79
2021/07/10 02:43:23;;;;;;;14.57;12.10;;;;;;;16.66;74.19;101663.84;3595346;40;20618;-80
2021/07/10 02:45:48;;;;;;;14.10;11.93;;;;;;;16.65;74.28;101671.56;3584706;40;20236;-79
2021/07/10 02:48:14;;;;;;;18.43;13.60;;;;;;;16.45;75.10;101660.22;3593889;40;20277;-79
2021/07/10 02:50:40;;;;;;;15.33;12.30;;;;;;;16.63;74.44;101665.53;3584358;40;20299;-79
2021/07/10 02:53:05;;;;;;;18.53;12.27;;;;;;;16.52;74.65;101668.03;3593207;40;20253;-80
2021/07/10 02:55:31;;;;;;;16.00;11.97;;;;;;;16.40;74.61;101664.47;3586419;40;20256;-80
2021/07/10 02:57:57;;;;;;;15.53;12.70;;;;;;;16.42;74.95;101666.22;3595824;40;20229;-80
2021/07/10 03:00:24;;;;;;;14.77;12.53;;;;;;;16.35;74.93;101666.13;3595978;40;20245;-80
2021/07/10 03:02:50;;;;;;;17.10;13.50;;;;;;;16.31;74.95;101672.13;3595636;40;20249;-79
2021/07/10 03:05:17;;;;;;;16.47;12.90;;;;;;;16.28;75.16;101674.66;3586524;40;20288;-80
2021/07/10 03:07:43;;;;;;;15.37;12.03;;;;;;;16.25;75.05;101665.16;3595914;40;20286;-80
2021/07/10 03:10:12;;;;;;;16.53;13.13;;;;;;;16.22;75.37;101669.44;3595601;40;20234;-80
2021/07/10 03:12:37;;;;;;;17.90;13.43;;;;;;;16.18;75.23;101671.13;3585992;40;20249;-79
2021/07/10 03:15:05;;;;;;;13.67;11.63;;;;;;;16.18;75.57;101673.72;3591387;40;20237;-79
2021/07/10 03:17:30;;;;;;;17.17;13.20;;;;;;;16.15;75.73;101672.78;3575044;40;20230;-79
2021/07/10 03:19:55;;;;;;;15.40;13.07;;;;;;;16.13;75.90;101667.63;3574378;40;20303;-79
2021/07/10 03:22:21;;;;;;;12.77;11.47;;;;;;;16.23;75.51;101678.91;3583858;40;20245;-79
2021/07/10 03:24:46;;;;;;;15.27;12.60;;;;;;;16.21;75.52;101675.47;3584444;40;20611;-79
2021/07/10 03:27:11;;;;;;;15.60;12.93;;;;;;;16.25;75.04;101678.09;3585693;40;20280;-79
2021/07/10 03:29:37;;;;;;;15.23;12.87;;;;;;;16.11;75.49;101674.50;3577478;40;20226;-79
2021/07/10 03:32:03;;;;;;;15.87;12.63;;;;;;;16.05;75.94;101671.84;3586321;40;20253;-80
2021/07/10 03:34:29;;;;;;;17.83;12.73;;;;;;;16.16;75.53;101671.97;3577179;40;20252;-79
2021/07/10 03:36:54;;;;;;;15.50;13.53;;;;;;;16.12;75.30;101675.38;3586279;40;20230;-80
2021/07/10 03:39:19;;;;;;;18.83;14.00;;;;;;;16.15;75.50;101678.84;3585265;40;20664;-79
2021/07/10 03:41:45;;;;;;;15.43;13.77;;;;;;;16.17;75.58;101673.69;3584684;40;20249;-80
2021/07/10 03:44:10;;;;;;;14.93;12.60;;;;;;;16.20;75.91;101678.88;3584743;40;20226;-80
2021/07/10 03:46:35;;;;;;;10.80;9.70;;;;;;;16.10;75.29;101682.22;3584797;40;20497;-80
2021/07/10 03:49:00;;;;;;;15.93;12.93;;;;;;;16.09;75.64;101681.38;3584580;40;20233;-79
2021/07/10 03:51:27;;;;;;;15.23;13.50;;;;;;;16.20;75.53;101672.00;3584973;40;20253;-78
2021/07/10 03:53:52;;;;;;;14.90;12.40;;;;;;;16.18;75.56;101673.72;3584489;40;20234;-78
2021/07/10 03:56:19;;;;;;;16.40;13.37;;;;;;;16.17;75.59;101681.44;3584030;40;20604;-81
2021/07/10 03:58:45;;;;;;;17.73;13.30;;;;;;;16.15;75.73;101676.25;3575016;40;20233;-81
2021/07/10 04:01:10;;;;;;;16.80;14.20;;;;;;;16.20;75.10;101676.28;3584563;40;20245;-79
2021/07/10 04:03:35;;;;;;;17.17;14.33;;;;;;;16.28;75.00;101677.25;3584135;40;20222;-80
2021/07/10 04:06:01;;;;;;;15.53;13.83;;;;;;;16.47;74.67;101676.59;3590963;40;20237;-80
2021/07/10 04:08:26;;;;;;;13.40;12.00;;;;;;;16.45;74.46;101675.72;3582947;40;20222;-80
2021/07/10 04:10:51;;;;;;;14.40;12.57;;;;;;;16.53;74.37;101674.06;3573073;40;20242;-80
2021/07/10 04:13:17;;;;;;;14.77;12.17;;;;;;;16.58;74.03;101680.16;3580989;40;20229;-80
2021/07/10 04:15:42;;;;;;;12.93;11.57;;;;;;;16.47;74.62;101680.06;3593940;40;20221;-81
2021/07/10 04:18:07;;;;;;;13.13;11.73;;;;;;;16.39;75.05;101680.81;3585374;40;20307;-81
2021/07/10 04:20:33;;;;;;;15.50;12.47;;;;;;;16.46;74.72;101680.03;3594088;40;20225;-80
2021/07/10 04:22:58;;;;;;;15.70;12.07;;;;;;;16.46;74.77;101678.31;3592951;40;20271;-81
2021/07/10 04:25:24;;;;;;;13.63;11.67;;;;;;;16.46;74.79;101682.63;3593713;40;20296;-80
2021/07/10 04:27:49;;;;;;;14.50;12.97;;;;;;;16.56;74.65;101684.44;3592947;40;20287;-81
2021/07/10 04:30:17;;;;;;;14.00;12.03;;;;;;;16.50;74.86;101685.25;3594007;40;20654;-81
2021/07/10 04:32:43;;;;;;;13.47;12.07;;;;;;;16.48;74.98;101691.28;3593793;40;20326;-79
2021/07/10 04:35:09;;;;;;;14.00;11.47;;;;;;;16.45;75.10;101689.53;3591754;40;20595;-78
2021/07/10 04:37:34;;;;;;;12.70;11.40;;;;;;;16.63;74.15;101681.06;3584467;40;20221;-79
2021/07/10 04:40:00;;;;;;;11.50;10.37;;;;;;;16.49;74.81;101687.84;3583545;40;20229;-79
2021/07/10 04:42:25;;;;;;;13.37;10.53;;;;;;;16.65;73.91;101681.91;3592501;40;20732;-79
2021/07/10 04:44:52;;;;;;;13.20;11.77;;;;;;;16.75;73.62;101675.97;3592838;40;20291;-78
2021/07/10 04:47:17;;;;;;;16.80;11.40;;;;;;;16.80;73.60;101685.50;3592478;40;20205;-79
2021/07/10 04:49:43;;;;;;;10.77;9.67;;;;;;;16.67;73.65;101685.41;3592565;40;20284;-80
2021/07/10 04:52:08;;;;;;;10.80;9.50;;;;;;;16.62;73.98;101684.50;3592185;40;20248;-79
2021/07/10 04:54:34;;;;;;;14.77;12.17;;;;;;;16.72;73.07;101681.97;3583920;40;20222;-79
2021/07/10 04:56:59;;;;;;;14.17;10.37;;;;;;;16.68;73.82;101684.53;3592629;40;20222;-79
2021/07/10 04:59:25;;;;;;;10.93;9.73;;;;;;;16.60;74.23;101676.72;3592037;40;20569;-81
2021/07/10 05:01:50;;;;;;;13.27;10.73;;;;;;;16.66;74.03;101678.47;3583159;40;20245;-79
2021/07/10 05:04:15;;;;;;;11.33;10.13;;;;;;;16.85;73.31;101688.97;3592459;40;20229;-79
2021/07/10 05:06:41;;;;;;;14.47;10.80;;;;;;;16.70;73.80;101681.13;3582828;40;20329;-79
2021/07/10 05:09:06;;;;;;;11.93;9.70;;;;;;;16.65;74.19;101687.09;3592069;40;20530;-78
2021/07/10 05:11:31;;;;;;;12.37;9.63;;;;;;;16.71;73.53;101677.66;3595247;40;20252;-80
2021/07/10 05:13:57;;;;;;;11.77;8.50;;;;;;;16.65;73.97;101677.63;3593315;40;20302;-79
2021/07/10 05:16:22;;;;;;;10.67;9.40;;;;;;;16.77;73.40;101680.28;3597251;40;20223;-79
2021/07/10 05:18:48;;;;;;;11.50;9.73;;;;;;;16.77;73.40;101677.69;3593443;40;20225;-80
2021/07/10 05:21:13;;;;;;;12.73;10.13;;;;;;;16.88;73.74;101675.19;3602839;39;20257;-79
2021/07/10 05:23:40;;;;;;;11.33;10.00;;;;;;;16.82;73.38;101675.16;3603907;40;20227;-80
2021/07/10 05:26:09;;;;;;;12.90;9.80;;;;;;;16.81;73.39;101676.03;3605653;40;20219;-79
2021/07/10 05:28:34;;;;;;;12.53;10.07;;;;;;;16.87;73.03;101670.88;3604994;40;20228;-77
2021/07/10 05:30:59;;;;;;;10.97;8.77;;;;;;;16.86;73.96;101667.41;3593723;40;20250;-78
2021/07/10 05:33:25;;;;;;;12.43;10.23;;;;;;;17.05;72.95;101668.44;3589189;40;20642;-80
2021/07/10 05:35:50;;;;;;;10.47;9.40;;;;;;;17.09;72.78;101667.59;3594335;40;20248;-79
2021/07/10 05:38:17;;;;;;;11.33;9.17;;;;;;;17.02;72.45;101679.63;3592152;40;20222;-79
2021/07/10 05:40:42;;;;;;;11.07;9.30;;;;;;;17.10;72.58;101672.78;3583745;40;20250;-79
2021/07/10 05:43:07;;;;;;;9.57;8.57;;;;;;;17.07;72.40;101671.88;3575554;40;20491;-80
2021/07/10 05:45:33;;;;;;;12.03;9.80;;;;;;;17.22;72.34;101665.06;3576469;40;20316;-79
2021/07/10 05:47:58;;;;;;;9.33;8.30;;;;;;;17.13;71.98;101675.38;3575123;40;20229;-79
2021/07/10 05:50:24;;;;;;;13.80;9.87;;;;;;;17.28;71.97;101672.03;3585444;40;20304;-79
2021/07/10 05:52:49;;;;;;;13.20;9.87;;;;;;;17.26;71.85;101668.53;3583773;40;20531;-79
2021/07/10 05:55:15;;;;;;;12.60;10.47;;;;;;;17.26;72.45;101678.88;3586237;40;20613;-77
2021/07/10 05:57:40;;;;;;;12.17;8.57;;;;;;;17.20;72.69;101684.03;3588975;40;20217;-79
2021/07/10 06:00:10;;;;;;;12.67;9.53;;;;;;;17.26;72.17;101691.84;3593261;40;20222;-79
2021/07/10 06:02:37;;;;;;;9.90;8.90;;;;;;;17.28;72.26;101679.78;3584464;40;20300;-81
2021/07/10 06:05:04;;;;;;;12.23;9.53;;;;;;;17.31;72.63;101675.47;3583542;40;20222;-78
2021/07/10 06:07:30;;;;;;;12.37;9.30;;;;;;;17.43;71.61;101672.13;3583883;40;20224;-79
2021/07/10 06:09:55;;;;;;;10.47;8.53;;;;;;;17.49;71.74;101678.19;3583506;40;20285;-79
2021/07/10 06:12:20;;;;;;;10.13;9.03;;;;;;;17.69;71.03;101673.13;3574193;40;20256;-78
2021/07/10 06:14:46;;;;;;;9.87;8.87;;;;;;;17.78;70.50;101671.41;3593133;40;20634;-78
2021/07/10 06:17:11;;;;;;;10.03;9.00;;;;;;;17.91;69.52;101669.75;3594176;40;20221;-78
2021/07/10 06:19:36;;;;;;;9.70;8.50;;;;;;;17.83;69.48;101680.06;3593356;40;20236;-80
2021/07/10 06:22:02;;;;;;;9.43;8.37;;;;;;;17.82;70.26;101680.06;3593670;40;20253;-80
2021/07/10 06:24:27;;;;;;;12.10;9.60;;;;;;;17.82;70.11;101682.66;3593849;40;20233;-80
2021/07/10 06:26:53;;;;;;;9.80;8.73;;;;;;;17.84;70.36;101687.00;3593419;40;20225;-80
2021/07/10 06:29:19;;;;;;;10.60;9.50;;;;;;;17.89;70.14;101685.28;3594053;40;20261;-80
2021/07/10 06:31:44;;;;;;;8.83;7.93;;;;;;;18.04;70.05;101692.22;3584234;40;20252;-80
2021/07/10 06:34:09;;;;;;;9.67;8.77;;;;;;;18.08;69.76;101689.66;3593817;40;20233;-80
2021/07/10 06:36:38;;;;;;;10.70;8.77;;;;;;;18.08;69.68;101693.97;3593738;40;20265;-80
2021/07/10 06:39:04;;;;;;;10.33;8.40;;;;;;;18.17;69.17;101692.25;3594916;40;20224;-77
2021/07/10 06:41:30;;;;;;;8.50;7.70;;;;;;;18.12;69.64;101699.16;3592430;40;20248;-79
2021/07/10 06:43:56;;;;;;;8.93;7.83;;;;;;;18.25;69.25;101705.25;3592984;40;20937;-80
2021/07/10 06:46:22;;;;;;;7.00;6.30;;;;;;;18.17;69.71;101702.63;3592928;40;20233;-79
2021/07/10 06:48:47;;;;;;;8.67;7.33;;;;;;;18.33;68.67;101696.63;3593265;40;20227;-77
2021/07/10 06:51:13;;;;;;;8.30;7.10;;;;;;;18.30;69.38;101703.53;3593429;40;20264;-79
2021/07/10 06:53:39;;;;;;;8.43;7.23;;;;;;;18.34;69.27;101700.09;3593244;40;20229;-79
2021/07/10 06:56:05;;;;;;;7.80;7.00;;;;;;;18.38;69.46;101694.91;3594031;40;20256;-79
2021/07/10 06:58:30;;;;;;;6.80;6.10;;;;;;;18.50;68.14;101700.13;3593555;40;20512;-79
2021/07/10 07:00:55;;;;;;;8.07;7.27;;;;;;;18.54;68.23;101704.47;3593336;40;20490;-80
2021/07/10 07:03:21;;;;;;;9.33;7.40;;;;;;;18.55;68.37;101697.53;3593278;40;20630;-79
2021/07/10 07:05:46;;;;;;;9.43;7.13;;;;;;;18.59;67.38;101714.81;3592855;40;20229;-80
2021/07/10 07:08:11;;;;;;;8.17;6.30;;;;;;;18.75;67.03;101703.59;3593043;40;20484;-79
2021/07/10 07:10:36;;;;;;;8.53;6.47;;;;;;;18.70;67.26;101703.59;3593061;40;20692;-78
2021/07/10 07:13:02;;;;;;;7.53;6.83;;;;;;;18.66;67.60;101701.84;3583177;40;20290;-79
2021/07/10 07:15:27;;;;;;;8.37;6.60;;;;;;;18.69;66.95;101716.56;3592408;40;20309;-79
2021/07/10 07:17:53;;;;;;;8.37;6.00;;;;;;;18.86;66.48;101715.72;3593068;40;20237;-79
2021/07/10 07:20:18;;;;;;;9.20;7.00;;;;;;;18.95;66.28;101715.72;3592404;40;20225;-79
2021/07/10 07:22:47;;;;;;;6.30;5.70;;;;;;;19.01;66.17;101723.47;3583059;40;20240;-79
2021/07/10 07:25:20;;;;;;;6.97;6.20;;;;;;;19.12;65.68;101724.31;3592859;40;20232;-79
2021/07/10 07:27:47;;;;;;;8.40;7.17;;;;;;;19.24;65.34;101718.28;3592682;40;20245;-79
2021/07/10 07:30:13;;;;;;;6.87;6.27;;;;;;;19.26;65.60;101716.56;3592254;40;20229;-79
2021/07/10 07:32:39;;;;;;;7.17;6.27;;;;;;;19.31;65.52;101717.41;3582962;40;20307;-78
2021/07/10 07:35:08;;;;;;;7.57;6.13;;;;;;;19.41;64.49;101714.81;3592713;40;20685;-80
2021/07/10 07:37:33;;;;;;;7.90;6.13;;;;;;;19.49;64.37;101717.38;3592166;40;20221;-79
2021/07/10 07:39:58;;;;;;;8.43;6.23;;;;;;;19.59;64.33;101724.25;3592312;40;20221;-80
2021/07/10 07:42:24;;;;;;;8.03;6.53;;;;;;;19.46;65.37;101730.38;3592580;40;20241;-79
2021/07/10 07:44:49;;;;;;;6.10;5.50;;;;;;;19.58;64.99;101719.94;3591992;40;20221;-80
2021/07/10 07:47:17;;;;;;;7.30;6.50;;;;;;;19.84;63.55;101723.28;3592805;40;20225;-81
2021/07/10 07:49:44;;;;;;;7.60;6.40;;;;;;;19.74;64.07;101717.28;3583145;40;20233;-79
2021/07/10 07:52:10;;;;;;;7.87;6.33;;;;;;;19.87;63.09;101713.78;3592762;40;20332;-79
2021/07/10 07:54:35;;;;;;;6.77;5.70;;;;;;;20.07;63.57;101721.44;3592757;40;20248;-79
2021/07/10 07:57:01;;;;;;;7.37;6.67;;;;;;;20.33;62.03;101715.28;3583358;40;20288;-79
2021/07/10 07:59:27;;;;;;;8.40;7.43;;;;;;;20.43;61.46;101716.94;3592169;40;20220;-79
2021/07/10 08:01:52;;;;;;;6.73;5.97;;;;;;;20.48;62.36;101722.09;3593060;40;20297;-81
2021/07/10 08:04:18;;;;;;;6.83;5.93;;;;;;;20.58;61.36;101721.16;3583479;40;20578;-80
2021/07/10 08:06:43;;;;;;;9.43;6.50;;;;;;;20.56;61.38;101729.00;3593122;40;20222;-79
2021/07/10 08:09:09;;;;;;;7.30;6.57;;;;;;;20.50;61.98;101725.56;3593206;40;20225;-80
2021/07/10 08:11:35;;;;;;;7.40;5.90;;;;;;;20.75;61.15;101722.78;3583720;40;20233;-80
2021/07/10 08:14:00;;;;;;;8.10;6.10;;;;;;;20.70;60.81;101718.47;3593270;40;20758;-79
2021/07/10 08:16:26;;;;;;;7.87;6.07;;;;;;;20.47;60.73;101730.78;3593048;40;20228;-81
2021/07/10 08:18:52;;;;;;;5.90;5.30;;;;;;;20.37;61.94;101726.53;3593170;40;20499;-80
2021/07/10 08:21:18;;;;;;;8.77;6.03;;;;;;;20.35;62.71;101723.94;3593597;40;20298;-80
2021/07/10 08:23:43;;;;;;;6.13;5.53;;;;;;;20.40;62.11;101726.50;3592418;40;20221;-79
2021/07/10 08:26:09;;;;;;;8.50;6.27;;;;;;;20.47;62.11;101728.19;3593386;40;20494;-80
2021/07/10 08:28:35;;;;;;;7.57;6.40;;;;;;;20.52;61.77;101729.91;3574277;40;20229;-79
2021/07/10 08:31:01;;;;;;;7.63;6.80;;;;;;;20.67;61.31;101728.91;3570406;40;20666;-79
2021/07/10 08:33:26;;;;;;;7.23;6.53;;;;;;;20.59;60.96;101721.16;3592170;40;20606;-80
2021/07/10 08:35:51;;;;;;;7.63;6.37;;;;;;;20.47;61.98;101722.97;3592545;40;20292;-79
2021/07/10 08:38:17;;;;;;;7.63;6.93;;;;;;;20.53;61.66;101731.63;3593203;40;20232;-79
2021/07/10 08:40:43;;;;;;;8.87;6.80;;;;;;;20.48;60.88;101724.69;3592176;40;20675;-80
2021/07/10 08:43:08;;;;;;;7.17;6.53;;;;;;;20.43;61.12;101729.97;3591627;40;20261;-81
2021/07/10 08:45:35;;;;;;;8.47;6.17;;;;;;;20.63;61.70;101724.63;3592154;40;20217;-80
2021/07/10 08:48:03;;;;;;;7.57;5.90;;;;;;;20.92;60.51;101722.66;3593199;40;20260;-81
2021/07/10 08:50:29;;;;;;;7.13;6.43;;;;;;;21.23;59.28;101721.50;3592935;40;20222;-80
2021/07/10 08:52:55;;;;;;;8.10;7.30;;;;;;;21.59;57.96;101723.69;3592471;40;20260;-81
2021/07/10 08:55:21;;;;;;;7.17;6.43;;;;;;;21.67;57.27;101717.53;3583378;40;20504;-80
2021/07/10 08:57:47;;;;;;;8.20;6.50;;;;;;;21.99;56.18;101711.94;3594123;40;20237;-80
2021/07/10 09:00:19;;;;;;;7.17;6.20;;;;;;;22.00;56.34;101714.53;3584953;40;20225;-78
2021/07/10 09:02:47;;;;;;;8.10;6.10;;;;;;;21.76;58.07;101714.84;3594461;40;20240;-79
2021/07/10 09:05:12;;;;;;;7.10;6.37;;;;;;;21.85;57.87;101706.03;3594115;40;20221;-80
2021/07/10 09:08:22;;;;;;;6.23;5.63;;;;;;;21.90;57.41;101705.09;3594344;40;20689;-80
2021/07/10 09:11:07;;;;;;;6.70;5.47;;;;;;;22.11;57.05;101709.16;3591856;40;20233;-81
2021/07/10 09:13:54;;;;;;;7.17;5.97;;;;;;;22.25;55.76;101704.63;3594312;40;20279;-79
2021/07/10 09:16:31;;;;;;;6.30;5.70;;;;;;;22.07;56.03;101704.88;3594723;40;20639;-80
2021/07/10 09:18:59;;;;;;;10.27;7.07;;;;;;;22.07;56.57;101705.72;3594481;40;20314;-80
2021/07/10 09:21:44;;;;;;;6.37;5.73;;;;;;;22.04;56.92;101704.91;3594911;40;20277;-81
2021/07/10 09:24:15;;;;;;;7.27;5.47;;;;;;;21.85;57.52;101700.81;3593428;40;20292;-80
2021/07/10 09:26:46;;;;;;;6.90;5.80;;;;;;;22.01;57.35;101691.88;3594751;40;20221;-81
2021/07/10 09:29:22;;;;;;;6.53;5.43;;;;;;;22.33;56.83;101700.13;3592255;40;20800;-81
2021/07/10 09:31:54;;;;;;;5.87;5.27;;;;;;;22.44;56.05;101693.00;3592946;40;20245;-81
2021/07/10 09:34:27;;;;;;;5.80;5.30;;;;;;;22.46;56.02;101687.81;3594374;40;20233;-81
2021/07/10 09:37:14;;;;;;;6.75;5.72;;;;;;;22.51;55.02;101692.03;3594619;40;20239;-78
2021/07/10 09:39:45;;;;;;;5.77;5.27;;;;;;;22.69;55.36;101689.16;3594218;40;20221;-79
2021/07/10 09:42:12;;;;;;;5.88;5.22;;;;;;;22.64;55.07;101692.75;3594139;40;20241;-78
2021/07/10 09:44:48;;;;;;;6.13;5.00;;;;;;;22.51;55.41;101696.44;3585467;40;20228;-81
2021/07/10 09:47:15;;;;;;;5.28;4.75;;;;;;;22.65;54.38;101686.63;3594446;40;20227;-79
2021/07/10 09:49:45;;;;;;;5.37;4.37;;;;;;;22.76;55.29;101689.91;3593794;40;20264;-80
2021/07/10 09:52:16;;;;;;;5.68;4.43;;;;;;;23.01;54.48;101694.69;3593899;40;20245;-80
2021/07/10 09:54:47;;;;;;;4.90;4.30;;;;;;;23.09;53.18;101690.19;3594301;40;20236;-80
2021/07/10 09:57:17;;;;;;;5.00;4.40;;;;;;;23.10;53.16;101698.88;3593629;40;20504;-81
2021/07/10 10:00:10;;;;;;;5.40;4.90;;;;;;;23.30;52.82;101691.56;3594087;40;20225;-80
2021/07/10 10:02:50;;;;;;;4.82;4.30;;;;;;;23.42;52.15;101694.81;3592412;40;20248;-80
2021/07/10 10:05:18;;;;;;;4.95;4.45;;;;;;;23.26;51.43;101703.84;3595099;40;20294;-79
2021/07/10 10:07:52;;;;;;;6.07;4.60;;;;;;;22.90;52.22;101704.47;3593976;40;20488;-81
2021/07/10 10:10:33;;;;;;;5.78;4.65;;;;;;;22.93;53.21;101706.16;3594788;40;20225;-79
2021/07/10 10:13:19;;;;;;;4.10;3.72;;;;;;;22.96;53.38;101696.50;3595147;40;20229;-80
2021/07/10 10:15:47;;;;;;;5.35;4.13;;;;;;;23.06;52.41;101698.06;3594884;40;20538;-81
2021/07/10 10:18:19;;;;;;;4.38;3.97;;;;;;;23.24;52.34;101702.16;3594983;40;20257;-81
2021/07/10 10:20:45;;;;;;;5.88;4.72;;;;;;;23.16;52.72;101696.16;3594987;40;20237;-81
2021/07/10 10:23:12;;;;;;;5.40;4.88;;;;;;;23.36;52.34;101697.56;3594886;40;20701;-80
2021/07/10 10:25:38;;;;;;;4.57;3.75;;;;;;;23.69;50.85;101690.78;3594735;40;20237;-80
2021/07/10 10:28:05;;;;;;;5.90;4.18;;;;;;;23.83;51.01;101693.97;3595230;40;20294;-80
2021/07/10 10:30:31;;;;;;;4.75;4.10;;;;;;;24.02;49.70;101700.56;3595538;40;20582;-79
2021/07/10 10:32:56;;;;;;;4.07;3.67;;;;;;;24.29;49.12;101705.16;3595245;40;20292;-79
2021/07/10 10:35:21;;;;;;;4.78;3.80;;;;;;;24.48;46.92;101703.84;3594763;40;20248;-80
2021/07/10 10:37:47;;;;;;;4.32;3.47;;;;;;;24.48;47.35;101702.09;3595839;40;20229;-81
2021/07/10 10:40:16;;;;;;;3.95;3.58;;;;;;;24.48;48.60;101695.97;3596332;40;20283;-80
2021/07/10 10:42:50;;;;;;;5.13;3.55;;;;;;;24.57;48.09;101706.25;3595341;40;20603;-81
2021/07/10 10:45:15;;;;;;;4.55;3.65;;;;;;;24.61;47.51;101703.56;3586484;40;20288;-80
2021/07/10 10:47:53;;;;;;;3.90;3.60;;;;;;;24.36;47.48;101698.91;3595719;40;20623;-82
2021/07/10 10:50:34;;;;;;;3.88;3.50;;;;;;;24.14;47.70;101701.16;3585887;40;20587;-82
2021/07/10 10:53:00;;;;;;;4.78;3.67;;;;;;;24.28;48.00;101691.25;3595457;40;20249;-81
2021/07/10 10:55:28;;;;;;;3.90;3.50;;;;;;;24.44;47.19;101702.22;3596022;40;20534;-82
2021/07/10 10:58:13;;;;;;;5.55;3.67;;;;;;;24.73;47.17;101705.88;3595623;40;20231;-79
2021/07/10 11:00:40;;;;;;;3.78;3.50;;;;;;;24.76;46.38;101704.91;3595432;40;20603;-82
2021/07/10 11:03:19;;;;;;;3.72;3.30;;;;;;;24.94;46.90;101702.72;3586867;40;20247;-81
2021/07/10 11:05:49;;;;;;;3.53;3.05;;;;;;;25.17;46.16;101695.09;3595820;40;20233;-81
2021/07/10 11:08:29;;;;;;;3.20;2.88;;;;;;;25.21;45.68;101701.13;3595305;40;20232;-81
2021/07/10 11:10:54;;;;;;;4.22;2.88;;;;;;;25.35;45.40;101705.13;3594095;40;20236;-81
2021/07/10 11:13:36;;;;;;;3.05;2.80;;;;;;;25.33;45.45;101703.47;3595255;40;20241;-80
2021/07/10 11:16:28;;;;;;;3.60;3.30;;;;;;;25.31;45.57;101698.25;3595039;40;20229;-81